Time;durP1;ratioP1;P1;durP2;ratioP2;P2;SDS_P1;SDS_P2;PMS_P1;PMS_P2;Temp;Humidity;BMP_temperature;BMP_pressure;BME280_temperature;BME280_humidity;BME280_pressure;Samples;Min_cycle;Max_cycle;Signal;HPM_P1;HPM_P2
2022/11/01 00:00:21;;;;;;;27.45;18.45;;;13.10;99.90;;;;;;4951475;28;20057;-74
2022/11/01 00:02:47;;;;;;;32.42;19.23;;;13.10;99.90;;;;;;4969773;28;20073;-74
2022/11/01 00:05:12;;;;;;;28.52;19.67;;;13.40;99.90;;;;;;4969259;28;20438;-77
2022/11/01 00:07:38;;;;;;;27.20;17.85;;;13.20;99.90;;;;;;4969983;28;20042;-73
2022/11/01 00:10:04;;;;;;;29.52;18.67;;;13.70;99.90;;;;;;4971291;28;20046;-74
2022/11/01 00:12:30;;;;;;;32.15;18.40;;;13.30;99.90;;;;;;4935911;28;20066;-75
2022/11/01 00:14:56;;;;;;;28.40;17.42;;;13.30;99.90;;;;;;4969888;28;20093;-72
2022/11/01 00:17:22;;;;;;;26.50;17.25;;;13.30;99.90;;;;;;4970160;28;20121;-74
2022/11/01 00:19:48;;;;;;;24.13;16.10;;;13.80;99.90;;;;;;4972639;28;20045;-73
2022/11/01 00:22:14;;;;;;;29.67;18.95;;;13.70;99.90;;;;;;4972161;28;20832;-72
2022/11/01 00:24:39;;;;;;;27.80;17.95;;;13.30;99.90;;;;;;4972114;28;20073;-75
2022/11/01 00:27:05;;;;;;;26.63;18.05;;;13.40;99.90;;;;;;4971048;28;20042;-74
2022/11/01 00:29:31;;;;;;;30.20;18.40;;;13.80;99.90;;;;;;4969906;28;20050;-74
2022/11/01 00:31:56;;;;;;;28.50;17.83;;;13.30;99.90;;;;;;4970092;28;20046;-78
2022/11/01 00:34:22;;;;;;;29.23;17.83;;;13.50;99.90;;;;;;4969769;28;20121;-75
2022/11/01 00:36:48;;;;;;;29.65;18.25;;;13.50;99.90;;;;;;4950661;28;20072;-78
2022/11/01 00:39:14;;;;;;;24.83;15.25;;;13.70;99.90;;;;;;4953108;28;20050;-75
2022/11/01 00:41:39;;;;;;;28.75;18.38;;;13.60;99.90;;;;;;4970144;28;20054;-75
2022/11/01 00:44:05;;;;;;;26.25;18.63;;;13.60;99.90;;;;;;4969745;28;20220;-75
2022/11/01 00:46:32;;;;;;;24.17;16.85;;;13.60;99.90;;;;;;4968174;28;20088;-73
2022/11/01 00:48:57;;;;;;;25.45;16.90;;;13.60;99.90;;;;;;4970836;28;20058;-76
2022/11/01 00:51:23;;;;;;;24.55;16.15;;;13.60;99.90;;;;;;4968275;28;20042;-76
2022/11/01 00:53:49;;;;;;;23.88;16.15;;;13.30;99.90;;;;;;4968670;28;20099;-74
2022/11/01 00:56:14;;;;;;;25.75;16.45;;;13.60;99.90;;;;;;4969897;28;20042;-77
2022/11/01 00:58:40;;;;;;;25.58;15.98;;;13.40;99.90;;;;;;4951039;28;20049;-74
2022/11/01 01:01:06;;;;;;;26.38;15.70;;;13.50;99.90;;;;;;4969646;28;20170;-74
2022/11/01 01:03:32;;;;;;;23.00;15.88;;;13.60;99.90;;;;;;4968905;28;20096;-76
2022/11/01 01:05:57;;;;;;;25.60;15.15;;;13.40;99.90;;;;;;4969422;28;20630;-76
2022/11/01 01:08:24;;;;;;;23.33;15.02;;;13.30;99.90;;;;;;4968002;28;20636;-75
2022/11/01 01:10:50;;;;;;;25.02;14.88;;;13.70;99.90;;;;;;4968350;28;20053;-75
2022/11/01 01:13:16;;;;;;;22.00;15.27;;;13.60;99.90;;;;;;4948613;28;20144;-75
2022/11/01 01:15:42;;;;;;;26.00;15.25;;;13.40;99.90;;;;;;4968015;28;20496;-75
2022/11/01 01:18:08;;;;;;;23.58;14.88;;;13.40;99.90;;;;;;4948122;28;20057;-75
2022/11/01 01:20:34;;;;;;;22.70;13.65;;;13.40;99.90;;;;;;4949722;28;20047;-76
2022/11/01 01:23:00;;;;;;;22.38;13.82;;;13.70;99.90;;;;;;4966048;28;20053;-74
2022/11/01 01:25:25;;;;;;;22.65;13.25;;;13.40;99.90;;;;;;4949636;28;20042;-76
2022/11/01 01:27:51;;;;;;;23.20;13.85;;;13.50;99.90;;;;;;4949996;28;20572;-74
2022/11/01 01:30:17;;;;;;;22.33;13.55;;;13.60;99.90;;;;;;4965695;28;20047;-77
2022/11/01 01:32:42;;;;;;;19.40;13.18;;;13.70;99.90;;;;;;4967441;28;20046;-74
2022/11/01 01:35:09;;;;;;;22.83;13.45;;;13.50;99.90;;;;;;4966917;28;20482;-74
2022/11/01 01:37:35;;;;;;;21.50;13.55;;;13.60;99.90;;;;;;4965972;28;20559;-75
2022/11/01 01:40:00;;;;;;;18.10;11.90;;;13.70;99.90;;;;;;4965457;28;20050;-73
2022/11/01 01:42:32;;;;;;;20.98;13.32;;;14.00;99.90;;;;;;4965520;28;20766;-75
2022/11/01 01:44:57;;;;;;;18.27;12.80;;;13.90;99.90;;;;;;4968260;28;20038;-74
2022/11/01 01:47:25;;;;;;;20.88;13.10;;;13.70;99.90;;;;;;4968121;28;20082;-75
2022/11/01 01:50:10;;;;;;;23.13;11.93;;;13.70;99.90;;;;;;4970027;28;20070;-74
2022/11/01 01:52:44;;;;;;;22.73;12.07;;;14.00;99.90;;;;;;4972113;28;20050;-77
2022/11/01 01:55:11;;;;;;;22.05;11.73;;;13.80;99.90;;;;;;4968884;28;20615;-75
2022/11/01 01:57:38;;;;;;;22.10;12.82;;;13.80;99.90;;;;;;4950730;28;20161;-75
2022/11/01 02:00:05;;;;;;;17.27;11.57;;;14.10;99.90;;;;;;4969772;28;20062;-74
2022/11/01 02:02:31;;;;;;;17.02;12.00;;;14.10;99.90;;;;;;4968033;28;21254;-75
2022/11/01 02:05:06;;;;;;;19.25;10.90;;;13.80;99.90;;;;;;4970247;28;20121;-78
2022/11/01 02:07:31;;;;;;;17.05;11.05;;;13.90;99.90;;;;;;4971464;28;20069;-77
2022/11/01 02:09:58;;;;;;;22.55;12.25;;;14.10;99.90;;;;;;4970349;28;20038;-76
2022/11/01 02:12:32;;;;;;;20.27;11.65;;;13.90;99.90;;;;;;4970051;28;20695;-76
2022/11/01 02:14:58;;;;;;;19.02;11.43;;;14.20;99.90;;;;;;4978578;28;20054;-76
2022/11/01 02:17:29;;;;;;;17.98;10.85;;;14.00;99.90;;;;;;4970152;28;20600;-75
2022/11/01 02:20:13;;;;;;;17.92;11.43;;;13.90;99.90;;;;;;4950304;28;20650;-75
2022/11/01 02:22:42;;;;;;;15.35;10.18;;;14.20;99.90;;;;;;4968397;28;20122;-76
2022/11/01 02:25:56;;;;;;;14.02;9.38;;;14.20;99.90;;;;;;4968584;28;20693;-74
2022/11/01 02:28:43;;;;;;;17.47;9.70;;;14.30;99.90;;;;;;4936656;28;20050;-76
2022/11/01 02:31:38;;;;;;;16.90;9.35;;;14.20;99.90;;;;;;4969507;28;20309;-76
2022/11/01 02:34:09;;;;;;;15.65;9.90;;;14.00;99.90;;;;;;4967625;28;20641;-76
2022/11/01 02:36:43;;;;;;;14.75;9.70;;;13.90;99.90;;;;;;4969522;28;20498;-75
2022/11/01 02:39:19;;;;;;;16.75;9.20;;;14.10;99.90;;;;;;4968233;28;20145;-79
2022/11/01 02:42:13;;;;;;;18.13;9.63;;;14.00;99.90;;;;;;4968910;28;20046;-75
2022/11/01 02:44:47;;;;;;;19.60;9.70;;;14.20;99.90;;;;;;4969270;28;20657;-78
2022/11/01 02:47:13;;;;;;;15.02;9.30;;;14.10;99.90;;;;;;4968647;28;20053;-75
2022/11/01 02:49:46;;;;;;;13.45;8.50;;;14.30;99.90;;;;;;4957940;28;20050;-74
2022/11/01 02:52:21;;;;;;;17.17;9.20;;;14.00;99.90;;;;;;4967603;28;20540;-76
2022/11/01 02:54:55;;;;;;;15.90;9.00;;;14.00;99.90;;;;;;4968847;28;20576;-75
2022/11/01 02:57:37;;;;;;;15.57;8.45;;;14.10;99.90;;;;;;4968099;28;20775;-75
2022/11/01 03:00:20;;;;;;;14.20;8.50;;;14.10;99.90;;;;;;4968004;28;20073;-75
2022/11/01 03:02:45;;;;;;;12.15;8.07;;;14.30;99.90;;;;;;4952995;28;20070;-74
2022/11/01 03:05:25;;;;;;;15.88;8.13;;;14.30;99.90;;;;;;4970927;28;20149;-74
2022/11/01 03:07:57;;;;;;;11.80;6.78;;;14.40;99.90;;;;;;4971063;28;20593;-75
2022/11/01 03:10:31;;;;;;;14.98;7.38;;;14.50;99.90;;;;;;4969779;28;20129;-74
2022/11/01 03:13:11;;;;;;;12.30;7.03;;;14.50;99.90;;;;;;4969885;28;20062;-74
2022/11/01 03:15:45;;;;;;;12.20;7.00;;;14.40;99.90;;;;;;4955145;28;20054;-75
2022/11/01 03:18:18;;;;;;;12.23;6.75;;;14.60;99.90;;;;;;4974086;28;20061;-79
2022/11/01 03:20:58;;;;;;;16.25;7.07;;;14.40;99.90;;;;;;4968967;28;20476;-75
2022/11/01 03:23:38;;;;;;;13.55;7.15;;;14.60;99.90;;;;;;4967927;28;20687;-77
2022/11/01 03:26:10;;;;;;;13.15;6.70;;;14.40;99.90;;;;;;4968301;28;20034;-74
2022/11/01 03:28:43;;;;;;;10.00;6.15;;;14.70;99.90;;;;;;4970154;28;20046;-74
2022/11/01 03:31:23;;;;;;;15.98;7.18;;;14.50;99.90;;;;;;4952050;28;20361;-76
2022/11/01 03:33:56;;;;;;;12.00;6.55;;;14.70;99.90;;;;;;4968102;28;20084;-77
2022/11/01 03:36:28;;;;;;;11.15;6.38;;;14.60;99.90;;;;;;4951176;28;20772;-75
2022/11/01 03:39:05;;;;;;;10.75;6.47;;;14.90;99.90;;;;;;4968800;28;20064;-76
2022/11/01 03:41:40;;;;;;;13.57;7.25;;;14.60;99.90;;;;;;4967724;28;20046;-75
2022/11/01 03:44:09;;;;;;;12.00;6.50;;;14.90;99.90;;;;;;4967867;28;20077;-77
2022/11/01 03:46:35;;;;;;;11.45;6.47;;;14.90;99.90;;;;;;4968922;28;20153;-75
2022/11/01 03:49:01;;;;;;;14.52;6.63;;;14.80;99.90;;;;;;4957528;28;20078;-76
2022/11/01 03:51:26;;;;;;;13.95;6.25;;;14.80;99.90;;;;;;4967642;28;20092;-75
2022/11/01 03:53:52;;;;;;;11.77;6.15;;;14.70;99.90;;;;;;4969256;28;20050;-75
2022/11/01 03:56:18;;;;;;;13.10;5.93;;;15.00;99.90;;;;;;4967212;28;20053;-75
2022/11/01 03:58:44;;;;;;;10.50;6.00;;;14.80;99.90;;;;;;4968032;28;20061;-75
2022/11/01 04:01:13;;;;;;;13.55;5.75;;;15.00;99.90;;;;;;4967782;28;20129;-75
2022/11/01 04:03:39;;;;;;;11.15;5.50;;;15.10;99.90;;;;;;4969200;28;20125;-75
2022/11/01 04:06:05;;;;;;;8.93;5.43;;;14.90;99.90;;;;;;4970955;28;20038;-75
2022/11/01 04:08:31;;;;;;;15.30;5.43;;;15.00;99.90;;;;;;4970395;28;20054;-75
2022/11/01 04:10:58;;;;;;;10.88;5.30;;;15.10;99.90;;;;;;4970442;28;20453;-76
2022/11/01 04:13:24;;;;;;;14.35;5.10;;;15.10;99.90;;;;;;4971180;28;20054;-75
2022/11/01 04:21:24;;;;;;;9.68;5.10;;;15.10;99.90;;;;;;4969595;28;20050;-73
2022/11/01 04:23:50;;;;;;;13.05;5.80;;;15.20;99.90;;;;;;4969441;28;20060;-74
2022/11/01 04:26:18;;;;;;;12.95;5.60;;;15.00;99.90;;;;;;4969208;28;20322;-74
2022/11/01 04:28:55;;;;;;;9.52;4.65;;;15.10;99.90;;;;;;4969185;28;20161;-74
2022/11/01 04:31:23;;;;;;;9.35;4.85;;;15.20;99.90;;;;;;4970024;28;20946;-74
2022/11/01 04:33:49;;;;;;;10.23;4.80;;;15.30;99.90;;;;;;4969578;28;20135;-74
2022/11/01 04:36:14;;;;;;;12.00;6.07;;;15.10;99.90;;;;;;4957770;28;20042;-73
2022/11/01 04:38:40;;;;;;;13.18;5.00;;;15.00;99.90;;;;;;4970473;28;20058;-79
2022/11/01 04:41:06;;;;;;;9.88;5.03;;;15.20;99.90;;;;;;4968537;28;20061;-74
2022/11/01 04:43:31;;;;;;;10.23;5.32;;;14.90;99.90;;;;;;4967391;28;20119;-75
2022/11/01 04:45:57;;;;;;;9.75;5.20;;;14.90;99.90;;;;;;4968616;28;20042;-76
2022/11/01 04:48:24;;;;;;;13.95;5.80;;;15.10;99.90;;;;;;4968757;28;20054;-74
2022/11/01 04:50:51;;;;;;;14.50;5.20;;;15.00;99.90;;;;;;4968541;28;20552;-74
2022/11/01 04:53:16;;;;;;;10.63;5.55;;;14.70;99.90;;;;;;4968921;28;20081;-77
2022/11/01 04:55:42;;;;;;;10.40;5.13;;;14.70;99.90;;;;;;4970362;28;20136;-75
2022/11/01 04:58:09;;;;;;;11.95;4.75;;;14.80;99.90;;;;;;4969607;28;20046;-75
2022/11/01 05:00:35;;;;;;;9.10;5.20;;;15.10;99.90;;;;;;4968267;28;20077;-77
2022/11/01 05:03:04;;;;;;;10.40;4.95;;;14.90;99.90;;;;;;4969076;28;20050;-75
2022/11/01 05:05:30;;;;;;;13.07;4.55;;;14.80;99.90;;;;;;4971061;28;20042;-76
2022/11/01 05:08:09;;;;;;;9.18;4.85;;;15.10;99.90;;;;;;4968741;28;20498;-75
2022/11/01 05:10:36;;;;;;;9.70;4.95;;;14.90;99.90;;;;;;4969116;28;20050;-74
2022/11/01 05:13:04;;;;;;;13.02;5.47;;;15.00;99.90;;;;;;4968549;28;20153;-73
2022/11/01 05:15:30;;;;;;;10.85;5.72;;;15.00;99.90;;;;;;4969461;28;20077;-74
2022/11/01 05:17:58;;;;;;;9.57;4.90;;;14.80;99.90;;;;;;4969425;28;20046;-75
2022/11/01 05:20:24;;;;;;;11.15;5.30;;;14.80;99.90;;;;;;4972131;28;20119;-75
2022/11/01 05:22:49;;;;;;;8.88;4.43;;;14.70;99.90;;;;;;4972266;28;20533;-75
2022/11/01 05:25:16;;;;;;;8.40;4.32;;;14.80;99.90;;;;;;4954846;28;20050;-77
2022/11/01 05:27:42;;;;;;;9.70;4.40;;;15.00;99.90;;;;;;4970893;28;20133;-74
2022/11/01 05:30:09;;;;;;;13.07;5.25;;;14.60;99.90;;;;;;4970145;28;20047;-75
2022/11/01 05:32:36;;;;;;;13.68;5.22;;;14.80;99.90;;;;;;4971264;28;20047;-76
2022/11/01 05:35:03;;;;;;;9.85;5.03;;;14.90;99.90;;;;;;4972812;28;20081;-74
2022/11/01 05:37:29;;;;;;;9.75;4.40;;;14.90;99.90;;;;;;4972271;28;20046;-76
2022/11/01 05:39:55;;;;;;;7.82;4.28;;;14.60;99.90;;;;;;4972626;28;20046;-75
2022/11/01 05:42:20;;;;;;;11.65;5.45;;;14.70;99.90;;;;;;4970555;28;20613;-76
2022/11/01 05:44:46;;;;;;;10.05;4.82;;;14.70;99.90;;;;;;4971911;28;20066;-72
2022/11/01 05:47:12;;;;;;;11.23;4.97;;;15.10;99.90;;;;;;4973048;28;20576;-74
2022/11/01 05:49:37;;;;;;;10.88;5.15;;;14.70;99.90;;;;;;4972151;28;20053;-75
2022/11/01 05:52:03;;;;;;;10.48;4.68;;;15.00;99.90;;;;;;4969852;28;20491;-74
2022/11/01 05:54:29;;;;;;;10.10;4.50;;;14.60;99.90;;;;;;4972351;28;20049;-77
2022/11/01 05:56:55;;;;;;;9.10;4.20;;;14.90;99.90;;;;;;4954647;28;20050;-74
2022/11/01 05:59:20;;;;;;;8.48;4.38;;;14.80;99.90;;;;;;4960106;28;20046;-74
2022/11/01 06:01:46;;;;;;;14.30;4.75;;;14.60;99.90;;;;;;4972107;28;20104;-75
2022/11/01 06:04:12;;;;;;;9.00;4.60;;;14.80;99.90;;;;;;4971812;28;20073;-74
2022/11/01 06:06:37;;;;;;;9.52;3.90;;;15.10;99.90;;;;;;4971526;28;20046;-74
2022/11/01 06:09:03;;;;;;;11.57;4.65;;;15.20;99.90;;;;;;4960972;28;20691;-76
2022/11/01 06:11:29;;;;;;;11.05;4.50;;;14.90;99.90;;;;;;4970939;28;20038;-75
2022/11/01 06:13:56;;;;;;;10.75;4.40;;;15.10;99.90;;;;;;4970980;28;20050;-77
2022/11/01 06:16:23;;;;;;;12.93;4.28;;;15.20;99.90;;;;;;4971417;28;20886;-74
2022/11/01 06:18:49;;;;;;;8.35;4.05;;;14.90;99.90;;;;;;4972434;28;20409;-76
2022/11/01 06:21:15;;;;;;;9.40;4.30;;;15.40;99.90;;;;;;4969754;28;20402;-73
2022/11/01 06:23:44;;;;;;;9.40;4.18;;;15.30;99.90;;;;;;4972491;28;20053;-74
2022/11/01 06:26:10;;;;;;;7.72;3.40;;;15.40;99.90;;;;;;4971754;28;20044;-75
2022/11/01 06:28:36;;;;;;;7.60;2.50;;;15.20;99.90;;;;;;4953939;28;20038;-74
2022/11/01 06:31:03;;;;;;;10.18;2.10;;;15.30;99.90;;;;;;4974528;28;20049;-73
2022/11/01 06:33:29;;;;;;;6.22;1.00;;;15.40;99.90;;;;;;4956073;28;20046;-71
2022/11/01 06:35:55;;;;;;;4.63;0.70;;;15.30;99.90;;;;;;4972707;28;20053;-76
2022/11/01 06:38:20;;;;;;;5.97;0.75;;;15.10;99.90;;;;;;4971006;28;20050;-74
2022/11/01 06:40:46;;;;;;;6.18;0.40;;;15.20;99.90;;;;;;4970954;28;20142;-75
2022/11/01 06:43:12;;;;;;;5.60;0.30;;;15.10;99.90;;;;;;4968360;28;20038;-75
2022/11/01 06:45:38;;;;;;;3.22;0.30;;;14.90;99.90;;;;;;4952539;28;20054;-71
2022/11/01 06:48:04;;;;;;;2.97;0.32;;;14.90;99.90;;;;;;4972463;28;20042;-75
2022/11/01 06:50:30;;;;;;;3.67;0.20;;;15.00;99.90;;;;;;4973024;28;20050;-75
2022/11/01 06:52:57;;;;;;;6.75;0.40;;;14.90;99.90;;;;;;4968104;28;20597;-75
2022/11/01 06:55:24;;;;;;;4.28;0.77;;;14.70;99.90;;;;;;4967814;28;20124;-77
2022/11/01 06:57:58;;;;;;;4.05;0.30;;;14.70;99.90;;;;;;4952956;28;20604;-75
2022/11/01 07:00:25;;;;;;;2.97;0.40;;;14.70;99.90;;;;;;4969315;28;20541;-75
2022/11/01 07:03:09;;;;;;;3.03;0.60;;;14.50;99.90;;;;;;4967905;28;20046;-74
2022/11/01 07:05:36;;;;;;;4.95;0.50;;;14.40;99.90;;;;;;4966602;28;20050;-74
2022/11/01 07:08:03;;;;;;;6.40;0.40;;;14.40;99.90;;;;;;4971162;28;20076;-74
2022/11/01 07:10:29;;;;;;;3.88;0.30;;;14.40;99.90;;;;;;4971264;28;20050;-74
2022/11/01 07:12:59;;;;;;;3.20;0.20;;;14.30;99.90;;;;;;4971873;28;20058;-74
2022/11/01 07:15:25;;;;;;;3.60;0.40;;;14.20;99.90;;;;;;4972093;28;20054;-76
2022/11/01 07:17:58;;;;;;;4.28;0.57;;;14.20;99.90;;;;;;4970783;28;20050;-74
2022/11/01 07:20:24;;;;;;;6.17;0.53;;;14.20;99.90;;;;;;4969887;28;20081;-76
2022/11/01 07:23:02;;;;;;;3.97;0.40;;;14.20;99.90;;;;;;4974491;28;20284;-74
2022/11/01 07:25:29;;;;;;;7.72;1.08;;;14.20;99.90;;;;;;4973931;28;20484;-74
2022/11/01 07:27:55;;;;;;;5.47;0.40;;;14.10;99.90;;;;;;4969638;28;20072;-74
2022/11/01 07:30:21;;;;;;;9.63;0.60;;;14.00;99.90;;;;;;4970665;28;20165;-74
2022/11/01 07:32:47;;;;;;;9.07;0.77;;;13.90;99.90;;;;;;4952920;28;20053;-74
2022/11/01 07:35:13;;;;;;;7.60;1.00;;;13.90;99.90;;;;;;4972220;28;20052;-75
2022/11/01 07:37:39;;;;;;;7.38;0.82;;;13.90;99.90;;;;;;4972157;28;20081;-76
2022/11/01 07:40:05;;;;;;;5.97;0.63;;;13.90;99.90;;;;;;4972056;28;20137;-77
2022/11/01 07:42:31;;;;;;;5.07;0.50;;;13.90;99.90;;;;;;4971166;28;20110;-75
2022/11/01 07:44:56;;;;;;;4.90;0.52;;;14.00;99.90;;;;;;4970770;28;21184;-73
2022/11/01 07:47:22;;;;;;;4.18;0.50;;;14.20;99.90;;;;;;4972015;28;20129;-74
2022/11/01 07:49:49;;;;;;;5.13;0.47;;;14.30;99.90;;;;;;4970444;28;20500;-75
2022/11/01 07:52:15;;;;;;;10.05;0.70;;;14.40;99.90;;;;;;4970592;28;20069;-74
2022/11/01 07:54:43;;;;;;;6.28;0.60;;;14.40;99.90;;;;;;4969305;28;20046;-73
2022/11/01 07:57:08;;;;;;;7.25;0.65;;;14.40;99.90;;;;;;4970646;28;20197;-75
2022/11/01 07:59:34;;;;;;;8.43;0.60;;;14.40;99.90;;;;;;4971763;28;20620;-76
2022/11/01 08:02:00;;;;;;;7.55;0.50;;;14.40;99.90;;;;;;4971902;28;20050;-75
2022/11/01 08:04:25;;;;;;;8.38;0.63;;;14.40;99.90;;;;;;4971325;28;20570;-74
2022/11/01 08:06:51;;;;;;;9.32;0.85;;;14.50;99.90;;;;;;4972447;28;20050;-73
2022/11/01 08:09:17;;;;;;;9.70;0.70;;;14.60;99.90;;;;;;4939965;28;20050;-74
2022/11/01 08:11:42;;;;;;;9.00;0.80;;;14.60;99.90;;;;;;4971988;28;20058;-73
2022/11/01 08:14:08;;;;;;;13.35;1.15;;;14.60;99.90;;;;;;4972627;28;20078;-72
2022/11/01 08:16:34;;;;;;;8.52;0.68;;;14.60;99.90;;;;;;4973175;28;20104;-73
2022/11/01 08:18:59;;;;;;;9.68;0.70;;;14.60;99.90;;;;;;4971670;28;20137;-75
2022/11/01 08:21:25;;;;;;;5.50;0.60;;;14.60;99.90;;;;;;4972459;28;20086;-73
2022/11/01 08:23:51;;;;;;;6.07;0.80;;;14.80;99.90;;;;;;4973837;28;20050;-74
2022/11/01 08:26:17;;;;;;;8.05;0.50;;;14.90;99.90;;;;;;4972902;28;20172;-75
2022/11/01 08:28:42;;;;;;;7.93;0.70;;;15.10;99.90;;;;;;4972010;28;20579;-75
2022/11/01 08:31:10;;;;;;;9.35;0.60;;;15.20;99.90;;;;;;4970672;28;20058;-75
2022/11/01 08:33:35;;;;;;;9.82;0.80;;;15.20;99.90;;;;;;4972350;28;20158;-72
2022/11/01 08:36:01;;;;;;;8.00;0.60;;;15.30;99.90;;;;;;4953274;28;20066;-74
2022/11/01 08:38:28;;;;;;;5.85;0.40;;;15.40;99.90;;;;;;4969877;28;20050;-73
2022/11/01 08:40:54;;;;;;;8.55;0.77;;;15.80;99.90;;;;;;4966545;28;20062;-74
2022/11/01 08:43:20;;;;;;;8.18;0.88;;;15.90;99.90;;;;;;4951760;28;20483;-73
2022/11/01 08:45:46;;;;;;;10.63;1.10;;;15.80;99.90;;;;;;4970232;28;20050;-73
2022/11/01 08:48:12;;;;;;;10.85;1.23;;;15.60;99.90;;;;;;4970107;28;20468;-74
2022/11/01 08:50:38;;;;;;;8.93;1.00;;;15.40;99.90;;;;;;4969662;28;20038;-76
2022/11/01 08:53:05;;;;;;;8.00;1.42;;;15.40;99.90;;;;;;4969358;28;20054;-77
2022/11/01 08:55:30;;;;;;;5.85;1.05;;;15.20;99.90;;;;;;4968497;28;20054;-74
2022/11/01 08:57:59;;;;;;;12.60;1.38;;;15.20;99.90;;;;;;4952079;28;20046;-74
2022/11/01 09:00:25;;;;;;;10.23;1.30;;;15.10;99.90;;;;;;4952901;28;20046;-73
2022/11/01 09:02:50;;;;;;;17.70;1.83;;;15.00;99.90;;;;;;4969448;28;20149;-75
2022/11/01 09:05:17;;;;;;;14.07;1.40;;;15.00;99.90;;;;;;4953436;28;20038;-76
2022/11/01 09:07:42;;;;;;;13.95;1.80;;;14.90;99.90;;;;;;4935829;28;20054;-75
2022/11/01 09:10:08;;;;;;;15.43;1.60;;;14.80;99.90;;;;;;4968377;28;20146;-74
2022/11/01 09:12:34;;;;;;;10.32;1.15;;;14.80;99.90;;;;;;4969839;28;20141;-75
2022/11/01 09:15:00;;;;;;;16.48;1.95;;;14.80;99.90;;;;;;4937927;28;20486;-76
2022/11/01 09:17:26;;;;;;;18.20;1.75;;;14.70;99.90;;;;;;4967921;28;21093;-76
2022/11/01 09:19:51;;;;;;;17.02;1.75;;;14.80;99.90;;;;;;4959977;28;20054;-75
2022/11/01 09:22:17;;;;;;;12.18;1.67;;;15.00;99.90;;;;;;4971679;28;20637;-75
2022/11/01 09:24:43;;;;;;;15.88;1.98;;;15.00;99.90;;;;;;4950337;28;20313;-75
2022/11/01 09:27:09;;;;;;;9.98;1.90;;;15.00;99.90;;;;;;4970032;28;20042;-75
2022/11/01 09:29:34;;;;;;;20.33;2.50;;;15.10;99.90;;;;;;4968247;28;20038;-75
2022/11/01 09:32:00;;;;;;;15.88;2.08;;;15.40;99.90;;;;;;4970548;28;21119;-74
2022/11/01 09:34:26;;;;;;;14.27;1.42;;;15.90;99.90;;;;;;4969099;28;20100;-74
2022/11/01 09:36:52;;;;;;;16.17;2.15;;;16.10;99.90;;;;;;4968442;28;20054;-75
2022/11/01 09:39:20;;;;;;;14.68;1.73;;;16.30;99.90;;;;;;4967077;28;20054;-75
2022/11/01 09:42:00;;;;;;;16.27;1.95;;;16.40;99.90;;;;;;4967662;28;20046;-75
2022/11/01 09:44:32;;;;;;;14.23;1.92;;;16.60;99.90;;;;;;4971260;28;20560;-77
2022/11/01 09:47:04;;;;;;;16.95;2.30;;;16.50;99.90;;;;;;4969832;28;20104;-75
2022/11/01 09:49:36;;;;;;;14.68;2.05;;;16.50;99.90;;;;;;4969366;28;20060;-75
2022/11/01 09:52:04;;;;;;;19.45;2.05;;;16.40;99.90;;;;;;4968262;28;20138;-76
2022/11/01 09:54:30;;;;;;;15.30;1.77;;;16.20;99.90;;;;;;4967024;28;20057;-75
2022/11/01 09:57:32;;;;;;;14.65;1.88;;;16.10;99.90;;;;;;4966089;28;20104;-75
2022/11/01 10:00:17;;;;;;;13.77;1.75;;;16.00;99.90;;;;;;4966869;28;20066;-75
2022/11/01 10:02:58;;;;;;;13.45;1.30;;;16.10;99.90;;;;;;4949714;28;20046;-78
2022/11/01 10:05:43;;;;;;;14.52;1.77;;;16.10;99.90;;;;;;4967447;28;20517;-75
2022/11/01 10:08:20;;;;;;;12.65;1.65;;;16.20;99.90;;;;;;4970662;28;20051;-73
2022/11/01 10:10:51;;;;;;;12.02;1.48;;;16.60;99.90;;;;;;4970494;28;20120;-75
2022/11/01 10:13:41;;;;;;;14.02;1.67;;;16.60;99.90;;;;;;4970520;28;20057;-75
2022/11/01 10:16:20;;;;;;;13.10;1.52;;;17.10;99.90;;;;;;4971292;28;20085;-74
2022/11/01 10:19:10;;;;;;;10.95;1.83;;;17.40;99.90;;;;;;4970778;28;20058;-74
2022/11/01 10:21:43;;;;;;;12.77;1.58;;;17.30;99.90;;;;;;4970130;28;20133;-75
2022/11/01 10:24:37;;;;;;;14.95;1.83;;;17.40;99.90;;;;;;4969224;28;20042;-74
2022/11/01 10:27:21;;;;;;;13.73;1.80;;;18.00;99.90;;;;;;4968924;28;20137;-76
2022/11/01 10:29:58;;;;;;;15.38;2.40;;;18.30;99.90;;;;;;4970032;28;20070;-73
2022/11/01 10:32:35;;;;;;;14.27;2.13;;;18.40;99.90;;;;;;4970581;28;20046;-75
2022/11/01 10:35:09;;;;;;;12.68;1.77;;;18.50;99.90;;;;;;4969983;28;20052;-75
2022/11/01 10:38:01;;;;;;;15.95;1.90;;;17.90;99.90;;;;;;4968717;28;20427;-74
2022/11/01 10:40:37;;;;;;;13.38;1.52;;;17.50;99.90;;;;;;4969148;28;20120;-75
2022/11/01 10:43:13;;;;;;;16.95;2.35;;;17.70;99.90;;;;;;4970752;28;20193;-74
2022/11/01 10:45:45;;;;;;;14.48;1.65;;;17.50;99.90;;;;;;4969193;28;20138;-76
2022/11/01 10:48:37;;;;;;;17.40;2.20;;;17.40;99.90;;;;;;4967921;28;20061;-76
2022/11/01 10:51:05;;;;;;;19.90;2.17;;;17.30;99.90;;;;;;4968058;28;20054;-77
2022/11/01 10:53:45;;;;;;;17.98;2.45;;;17.00;99.90;;;;;;4970216;28;20042;-75
2022/11/01 10:56:16;;;;;;;14.38;2.08;;;16.90;99.90;;;;;;4969356;28;20046;-75
2022/11/01 10:58:56;;;;;;;15.07;2.08;;;17.20;99.90;;;;;;4969916;28;20050;-77
2022/11/01 11:01:25;;;;;;;12.85;1.95;;;17.30;99.90;;;;;;4966129;28;20490;-74
2022/11/01 11:03:51;;;;;;;15.35;2.10;;;17.00;99.90;;;;;;4970294;28;20042;-75
2022/11/01 11:06:18;;;;;;;16.25;2.28;;;17.10;99.90;;;;;;4967831;28;20570;-75
2022/11/01 11:08:49;;;;;;;14.05;1.77;;;17.20;99.90;;;;;;4967554;28;20812;-75
2022/11/01 11:11:16;;;;;;;13.52;2.25;;;17.60;99.90;;;;;;4968795;28;20587;-72
2022/11/01 11:13:51;;;;;;;17.35;2.08;;;17.50;99.90;;;;;;4968141;28;20142;-77
2022/11/01 11:16:57;;;;;;;15.13;2.08;;;17.00;99.90;;;;;;4967106;28;20055;-75
2022/11/01 11:19:29;;;;;;;19.08;2.38;;;16.60;99.90;;;;;;4968549;28;20058;-77
2022/11/01 11:21:56;;;;;;;14.38;2.05;;;16.40;99.90;;;;;;4968918;28;20788;-75
2022/11/01 11:24:25;;;;;;;14.90;1.65;;;16.20;99.90;;;;;;4968858;28;20125;-77
2022/11/01 11:26:56;;;;;;;17.75;2.40;;;16.10;99.90;;;;;;4968733;28;20133;-75
2022/11/01 11:29:38;;;;;;;13.73;2.17;;;15.90;99.90;;;;;;4967664;28;20050;-75
2022/11/01 11:32:13;;;;;;;13.93;2.15;;;15.70;99.90;;;;;;4966705;28;20129;-75
2022/11/01 11:34:40;;;;;;;12.95;1.63;;;15.70;99.90;;;;;;4968616;28;20053;-75
2022/11/01 11:37:07;;;;;;;15.68;1.67;;;15.70;99.90;;;;;;4967227;28;20042;-75
2022/11/01 11:39:35;;;;;;;11.07;1.00;;;15.70;99.90;;;;;;4967655;28;20056;-77
2022/11/01 11:42:15;;;;;;;15.48;2.20;;;15.70;99.90;;;;;;4950759;28;20046;-76
2022/11/01 11:44:53;;;;;;;12.35;1.95;;;15.80;99.90;;;;;;4966621;28;20030;-77
2022/11/01 11:47:24;;;;;;;16.20;2.00;;;15.80;99.90;;;;;;4966900;28;20046;-75
2022/11/01 11:49:56;;;;;;;14.63;1.50;;;15.70;99.90;;;;;;4966752;28;20537;-76
2022/11/01 11:52:29;;;;;;;13.23;1.83;;;15.80;99.90;;;;;;4968907;28;20051;-74
2022/11/01 11:54:55;;;;;;;16.02;2.00;;;15.80;99.90;;;;;;4966759;28;20058;-76
2022/11/01 11:57:28;;;;;;;13.13;1.80;;;15.80;99.90;;;;;;4949178;28;20054;-74
2022/11/01 12:00:04;;;;;;;19.30;2.60;;;15.90;99.90;;;;;;4967446;28;20462;-76
2022/11/01 12:02:36;;;;;;;16.70;1.85;;;16.20;99.90;;;;;;4967596;28;20054;-77
2022/11/01 12:05:07;;;;;;;11.52;1.45;;;16.60;99.90;;;;;;4966756;28;20510;-75
2022/11/01 12:07:36;;;;;;;11.32;1.80;;;16.70;99.90;;;;;;4965747;28;20038;-75
2022/11/01 12:10:25;;;;;;;12.80;1.63;;;17.30;99.90;;;;;;4966810;28;20467;-78
2022/11/01 12:12:53;;;;;;;14.40;1.42;;;17.80;99.90;;;;;;4952052;28;20093;-75
2022/11/01 12:15:33;;;;;;;14.80;1.80;;;18.00;99.90;;;;;;4968106;28;20125;-75
2022/11/01 12:18:18;;;;;;;14.95;2.03;;;18.00;99.90;;;;;;4962852;28;20091;-76
2022/11/01 12:20:52;;;;;;;16.27;1.42;;;18.30;99.90;;;;;;4966380;28;20046;-75
2022/11/01 12:23:30;;;;;;;13.82;1.55;;;18.50;99.90;;;;;;4965904;28;20046;-75
2022/11/01 12:26:00;;;;;;;12.57;1.50;;;18.50;99.90;;;;;;4965225;28;20052;-76
2022/11/01 12:28:38;;;;;;;13.38;2.00;;;18.70;99.90;;;;;;4964955;28;20049;-76
2022/11/01 12:31:11;;;;;;;10.75;1.67;;;18.40;99.90;;;;;;4966730;28;20050;-74
2022/11/01 12:33:44;;;;;;;13.25;1.70;;;18.40;99.90;;;;;;4967770;28;20049;-75
2022/11/01 12:36:13;;;;;;;13.05;1.65;;;18.40;99.90;;;;;;4965980;28;20050;-79
2022/11/01 12:39:05;;;;;;;13.40;1.60;;;18.30;99.90;;;;;;4966412;28;20226;-75
2022/11/01 12:41:44;;;;;;;12.10;1.55;;;18.30;99.90;;;;;;4967955;28;20053;-74
2022/11/01 12:44:37;;;;;;;9.52;1.13;;;18.50;99.90;;;;;;4966623;28;20050;-79
2022/11/01 12:47:31;;;;;;;11.38;1.23;;;18.90;99.90;;;;;;4968508;28;20072;-75
2022/11/01 12:50:19;;;;;;;12.52;1.35;;;19.10;99.90;;;;;;4966588;28;20048;-75
2022/11/01 12:53:01;;;;;;;12.32;1.90;;;19.00;99.90;;;;;;4950877;28;20042;-74
2022/11/01 12:55:32;;;;;;;11.32;1.40;;;18.90;99.90;;;;;;4966976;28;20074;-77
2022/11/01 12:57:58;;;;;;;10.57;1.55;;;18.50;99.90;;;;;;4968319;28;20145;-75